Terminal Aerodrome Forecast
Issued by NWS Green Bay, WI

Home | Current Version | Previous Version | Graphics & Text | Print | Product List | Glossary On
Versions: 1 2 3 4 5 6 7 8 9 10 11 12 13 14 15 16 17 18 19 20 21 22 23 24 25 26 27 28 29 30 31 32 33 34 35
000
FTUS43 KGRB 261735
TAFGRB
TAF
KGRB 261735Z 2618/2718 12008KT 4SM -SHRA SCT018 BKN050
      TEMPO 2618/2621 2SM TSRA BR SCT008 BKN018CB
     FM262200 15010G16KT 4SM -SHRA BKN020 OVC040 WS020/18030KT
     FM270300 23009G15KT 4SM -DZ BR OVC004 WS020/22040KT
     FM270800 24012G20KT P6SM SCT025 OVC040
     FM271500 28011G18KT P6SM VCSH BKN018=

USA.gov is the U.S. government's official web portal to all federal, state and local government web resources and services.